Time;durP1;ratioP1;P1;durP2;ratioP2;P2;SDS_P1;SDS_P2;PMS_P1;PMS_P2;Temp;Humidity;BMP_temperature;BMP_pressure;BME280_temperature;BME280_humidity;BME280_pressure;Samples;Min_cycle;Max_cycle;Signal;HPM_P1;HPM_P2
2023/04/28 00:01:05;;;;;;;;;;;;;;;8.79;30.35;100918.38;5095694;28;19912;-61
2023/04/28 00:03:30;;;;;;;;;;;;;;;8.82;29.90;100914.50;5096290;28;20372;-60
2023/04/28 00:05:56;;;;;;;;;;;;;;;8.84;29.76;100917.84;5098220;28;19912;-63
2023/04/28 00:08:24;;;;;;;;;;;;;;;8.85;30.10;100917.69;5099148;28;20006;-60
2023/04/28 00:10:50;;;;;;;;;;;;;;;8.91;30.42;100926.88;5097178;28;19934;-60
2023/04/28 00:13:15;;;;;;;;;;;;;;;8.89;31.23;100931.56;5096721;28;20382;-59
2023/04/28 00:15:40;;;;;;;;;;;;;;;8.94;31.35;100928.41;5097056;28;19912;-61
2023/04/28 00:18:05;;;;;;;;;;;;;;;8.89;29.65;100932.41;5096127;28;19916;-62
2023/04/28 00:20:31;;;;;;;;;;;;;;;8.84;30.08;100939.28;5095837;28;19912;-61
2023/04/28 00:22:56;;;;;;;;;;;;;;;8.72;30.28;100936.94;5095920;28;20310;-61
2023/04/28 00:25:22;;;;;;;;;;;;;;;8.65;29.65;100937.81;5096367;28;19922;-61
2023/04/28 00:27:47;;;;;;;;;;;;;;;8.61;30.33;100947.19;5095472;28;20295;-59
2023/04/28 00:30:12;;;;;;;;;;;;;;;8.57;31.06;100948.53;5096648;28;19916;-61
2023/04/28 00:32:37;;;;;;;;;;;;;;;8.64;30.69;100952.22;5095551;28;20642;-60
2023/04/28 00:35:03;;;;;;;;;;;;;;;8.64;30.55;100947.69;5097119;28;19918;-60
2023/04/28 00:37:28;;;;;;;;;;;;;;;8.64;30.29;100949.53;5096047;28;19939;-62
2023/04/28 00:39:56;;;;;;;;;;;;;;;8.56;30.04;100949.53;5095686;28;19912;-61
2023/04/28 00:42:22;;;;;;;;;;;;;;;8.47;30.31;100952.22;5094329;28;19919;-61
2023/04/28 00:44:47;;;;;;;;;;;;;;;8.43;31.25;100969.63;5094422;28;20339;-61
2023/04/28 00:47:14;;;;;;;;;;;;;;;8.41;30.57;100955.50;5092907;28;19942;-61
2023/04/28 00:49:40;;;;;;;;;;;;;;;8.39;30.49;100964.72;5094402;28;20003;-60
2023/04/28 00:52:05;;;;;;;;;;;;;;;8.34;30.38;100959.88;5093894;28;19951;-60
2023/04/28 00:54:34;;;;;;;;;;;;;;;8.32;30.94;100965.41;5093596;28;20296;-61
2023/04/28 00:57:01;;;;;;;;;;;;;;;8.26;30.86;100960.69;5092509;28;19962;-59
2023/04/28 00:59:27;;;;;;;;;;;;;;;8.22;31.16;100962.03;5092521;28;20389;-61
2023/04/28 01:01:52;;;;;;;;;;;;;;;8.18;31.12;100963.38;5093815;28;19955;-59
2023/04/28 01:04:19;;;;;;;;;;;;;;;8.11;31.07;100973.06;5075908;28;19916;-60
2023/04/28 01:06:45;;;;;;;;;;;;;;;8.10;31.75;100968.72;5094865;28;19912;-61
2023/04/28 01:09:10;;;;;;;;;;;;;;;8.09;31.95;100970.53;5094771;28;19951;-59
2023/04/28 01:11:36;;;;;;;;;;;;;;;8.14;31.63;100978.91;5095155;28;20324;-61
2023/04/28 01:14:02;;;;;;;;;;;;;;;8.13;32.36;100971.06;5095396;28;19920;-61
2023/04/28 01:16:28;;;;;;;;;;;;;;;8.10;32.26;100980.25;5094750;28;20440;-61
2023/04/28 01:18:53;;;;;;;;;;;;;;;8.10;32.22;100982.09;5094093;28;19916;-61
2023/04/28 01:21:31;;;;;;;;;;;;;;;8.09;32.10;100978.56;5094710;28;19912;-60
2023/04/28 01:23:56;;;;;;;;;;;;;;;8.07;32.11;100977.91;5093113;28;19918;-60
2023/04/28 01:26:22;;;;;;;;;;;;;;;8.07;31.51;100980.56;5094573;28;19912;-61
2023/04/28 01:28:47;;;;;;;;;;;;;;;8.08;32.11;100976.09;5094855;28;19915;-60
2023/04/28 01:31:12;;;;;;;;;;;;;;;8.08;32.68;100979.59;5095092;28;20414;-60
2023/04/28 01:33:38;;;;;;;;;;;;;;;8.06;32.21;100978.06;5094219;28;19916;-61
2023/04/28 01:36:03;;;;;;;;;;;;;;;8.04;32.28;100978.25;5094991;28;19919;-62
2023/04/28 01:38:28;;;;;;;;;;;;;;;8.02;32.08;100979.41;5094433;28;19916;-59
2023/04/28 01:40:54;;;;;;;;;;;;;;;7.98;32.11;100986.09;5094679;28;19923;-60
2023/04/28 01:43:19;;;;;;;;;;;;;;;7.93;33.08;100987.41;5094539;28;19912;-59
2023/04/28 01:45:44;;;;;;;;;;;;;;;7.86;32.94;100983.72;5093392;28;19923;-61
2023/04/28 01:48:10;;;;;;;;;;;;;;;7.85;33.65;100995.41;5094925;28;19913;-61
2023/04/28 01:50:35;;;;;;;;;;;;;;;7.79;33.49;100993.38;5094435;28;19912;-60
2023/04/28 01:53:01;;;;;;;;;;;;;;;7.70;33.66;100995.19;5094067;28;19912;-61
2023/04/28 01:55:26;;;;;;;;;;;;;;;7.60;33.37;101002.50;5095147;28;19961;-61
2023/04/28 01:57:51;;;;;;;;;;;;;;;7.58;34.53;100993.81;5095333;28;19917;-61
2023/04/28 02:00:17;;;;;;;;;;;;;;;7.66;33.87;100991.16;5095138;28;19912;-61
2023/04/28 02:02:42;;;;;;;;;;;;;;;7.65;33.74;101000.19;5094319;28;19973;-61
2023/04/28 02:05:07;;;;;;;;;;;;;;;7.53;34.23;101002.31;5094556;28;19948;-62
2023/04/28 02:07:33;;;;;;;;;;;;;;;7.44;33.59;101005.09;5093244;28;19954;-63
2023/04/28 02:09:58;;;;;;;;;;;;;;;7.33;33.09;101007.03;5095379;28;19934;-61
2023/04/28 02:12:24;;;;;;;;;;;;;;;7.21;34.00;101003.00;5095228;28;20315;-59
2023/04/28 02:14:50;;;;;;;;;;;;;;;7.12;33.97;101014.63;5095281;28;19919;-61
2023/04/28 02:17:15;;;;;;;;;;;;;;;7.06;33.93;101012.59;5097705;28;19924;-63
2023/04/28 02:19:42;;;;;;;;;;;;;;;7.05;34.11;101014.41;5097751;28;20154;-61
2023/04/28 02:22:07;;;;;;;;;;;;;;;7.02;34.21;101012.06;5098649;28;20378;-60
2023/04/28 02:24:36;;;;;;;;;;;;;;;6.95;34.72;101013.69;5097743;28;19916;-63
2023/04/28 02:27:02;;;;;;;;;;;;;;;6.94;34.25;101015.50;5097516;28;19921;-60
2023/04/28 02:29:28;;;;;;;;;;;;;;;6.93;34.69;101013.00;5097441;28;19922;-62
2023/04/28 02:31:54;;;;;;;;;;;;;;;6.90;34.14;101016.81;5096474;28;19920;-60
2023/04/28 02:34:20;;;;;;;;;;;;;;;6.92;34.10;101017.47;5097922;28;19927;-60
2023/04/28 02:36:47;;;;;;;;;;;;;;;6.93;34.67;101015.66;5098250;28;19950;-62
2023/04/28 02:39:12;;;;;;;;;;;;;;;6.92;34.03;101017.47;5097136;28;19944;-60
2023/04/28 02:41:38;;;;;;;;;;;;;;;7.04;33.64;101014.56;5098141;28;19916;-60
2023/04/28 02:44:03;;;;;;;;;;;;;;;7.12;33.67;101009.28;5095238;28;19922;-61
2023/04/28 02:46:28;;;;;;;;;;;;;;;7.10;33.38;101019.28;5097645;28;19920;-61
2023/04/28 02:48:54;;;;;;;;;;;;;;;7.13;33.71;101024.28;5097051;28;19916;-61
2023/04/28 02:51:19;;;;;;;;;;;;;;;7.20;33.89;101021.84;5096989;28;20574;-60
2023/04/28 02:53:45;;;;;;;;;;;;;;;7.20;33.58;101035.19;5097376;28;19923;-60
2023/04/28 02:56:10;;;;;;;;;;;;;;;7.12;33.90;101027.97;5097653;28;19919;-60
2023/04/28 02:58:36;;;;;;;;;;;;;;;7.10;33.57;101022.78;5097610;28;19916;-61
2023/04/28 03:01:01;;;;;;;;;;;;;;;7.05;34.26;101026.91;5097862;28;19912;-62
2023/04/28 03:03:26;;;;;;;;;;;;;;;7.01;34.29;101021.06;5096723;28;19939;-62
2023/04/28 03:05:51;;;;;;;;;;;;;;;7.01;34.26;101018.38;5096651;28;19912;-60
2023/04/28 03:08:17;;;;;;;;;;;;;;;7.02;34.49;101025.41;5096554;28;20443;-60
2023/04/28 03:10:43;;;;;;;;;;;;;;;6.97;33.83;101030.38;5096611;28;19916;-62
2023/04/28 03:13:08;;;;;;;;;;;;;;;6.92;33.48;101024.66;5099451;28;19931;-60
2023/04/28 03:15:33;;;;;;;;;;;;;;;6.92;34.38;101027.34;5102564;28;19913;-60
2023/04/28 03:17:59;;;;;;;;;;;;;;;6.96;34.05;101028.69;5102764;28;19923;-61
2023/04/28 03:20:24;;;;;;;;;;;;;;;7.02;33.92;101029.91;5097744;28;19916;-61
2023/04/28 03:22:49;;;;;;;;;;;;;;;7.01;33.61;101031.72;5098051;28;20322;-61
2023/04/28 03:25:15;;;;;;;;;;;;;;;7.00;33.83;101038.06;5096326;28;19934;-61
2023/04/28 03:27:40;;;;;;;;;;;;;;;7.02;33.11;101036.09;5095496;28;20371;-62
2023/04/28 03:30:05;;;;;;;;;;;;;;;6.98;34.01;101040.03;5096988;28;20323;-62
2023/04/28 03:32:31;;;;;;;;;;;;;;;6.98;33.71;101045.38;5096793;28;19994;-61
2023/04/28 03:34:56;;;;;;;;;;;;;;;6.97;34.59;101038.38;5095730;28;19912;-61
2023/04/28 03:37:21;;;;;;;;;;;;;;;6.95;33.71;101032.38;5096210;28;19932;-61
2023/04/28 03:39:47;;;;;;;;;;;;;;;6.92;33.10;101036.16;5096923;28;20280;-60
2023/04/28 03:42:12;;;;;;;;;;;;;;;6.92;33.85;101036.16;5096901;28;19961;-61
2023/04/28 03:44:37;;;;;;;;;;;;;;;6.95;33.49;101037.72;5096738;28;19920;-61
2023/04/28 03:47:03;;;;;;;;;;;;;;;6.96;33.70;101045.56;5095767;28;19916;-62
2023/04/28 03:49:28;;;;;;;;;;;;;;;6.97;33.98;101044.56;5095769;28;20494;-60
2023/04/28 03:51:54;;;;;;;;;;;;;;;7.00;33.49;101043.41;5093655;28;20379;-59
2023/04/28 03:54:19;;;;;;;;;;;;;;;7.03;33.78;101040.44;5095403;28;19927;-58
2023/04/28 03:56:45;;;;;;;;;;;;;;;7.05;33.60;101042.94;5095614;28;19969;-60
2023/04/28 03:59:11;;;;;;;;;;;;;;;7.08;33.51;101043.47;5094721;28;19966;-60
2023/04/28 04:01:36;;;;;;;;;;;;;;;7.17;33.60;101041.69;5093771;28;19961;-59
2023/04/28 04:04:02;;;;;;;;;;;;;;;7.18;33.33;101038.84;5094654;28;19950;-61
2023/04/28 04:06:27;;;;;;;;;;;;;;;7.21;33.13;101044.91;5094050;28;19912;-59
2023/04/28 04:08:52;;;;;;;;;;;;;;;7.24;33.58;101041.91;5094647;28;19920;-61
2023/04/28 04:11:17;;;;;;;;;;;;;;;7.23;32.82;101038.41;5094490;28;20552;-60
2023/04/28 04:13:43;;;;;;;;;;;;;;;7.26;32.81;101043.44;5093668;28;19931;-60
2023/04/28 04:16:08;;;;;;;;;;;;;;;7.28;32.29;101045.91;5091827;28;19916;-61
2023/04/28 04:18:34;;;;;;;;;;;;;;;7.30;32.87;101042.13;5093080;28;19916;-61
2023/04/28 04:20:59;;;;;;;;;;;;;;;7.36;32.87;101044.16;5092856;28;20012;-61
2023/04/28 04:23:25;;;;;;;;;;;;;;;7.41;32.52;101046.34;5093683;28;19916;-60
2023/04/28 04:25:50;;;;;;;;;;;;;;;7.41;32.94;101045.50;5095921;28;19912;-62
2023/04/28 04:28:15;;;;;;;;;;;;;;;7.46;32.59;101053.88;5095359;28;19912;-61
2023/04/28 04:30:41;;;;;;;;;;;;;;;7.47;32.81;101053.72;5095254;28;19912;-62
2023/04/28 04:33:07;;;;;;;;;;;;;;;7.47;32.37;101053.72;5095408;28;20245;-61
2023/04/28 04:35:33;;;;;;;;;;;;;;;7.52;32.45;101059.44;5095521;28;19938;-62
2023/04/28 04:37:59;;;;;;;;;;;;;;;7.57;31.90;101054.44;5094851;28;20357;-60
2023/04/28 04:40:24;;;;;;;;;;;;;;;7.58;31.90;101057.97;5095956;28;19912;-61
2023/04/28 04:42:49;;;;;;;;;;;;;;;7.59;32.38;101053.44;5095310;28;20058;-61
2023/04/28 04:45:15;;;;;;;;;;;;;;;7.65;33.94;101068.84;5095433;28;19915;-62
2023/04/28 04:47:40;;;;;;;;;;;;;;;7.72;33.34;101065.38;5095660;28;19913;-59
2023/04/28 04:50:06;;;;;;;;;;;;;;;7.80;32.73;101066.41;5096042;28;19916;-59
2023/04/28 04:52:31;;;;;;;;;;;;;;;7.83;32.36;101071.44;5095133;28;19916;-61
2023/04/28 04:54:57;;;;;;;;;;;;;;;7.86;32.22;101071.13;5096133;28;19918;-59
2023/04/28 04:57:23;;;;;;;;;;;;;;;7.89;32.90;101068.97;5094608;28;20432;-60
2023/04/28 04:59:48;;;;;;;;;;;;;;;7.92;32.93;101068.63;5095289;28;19916;-59
2023/04/28 05:02:13;;;;;;;;;;;;;;;7.95;32.25;101068.31;5096141;28;20329;-61
2023/04/28 05:04:38;;;;;;;;;;;;;;;8.04;32.99;101074.53;5095795;28;19954;-60
2023/04/28 05:07:04;;;;;;;;;;;;;;;8.10;31.86;101073.06;5095300;28;20428;-61
2023/04/28 05:09:30;;;;;;;;;;;;;;;8.13;32.21;101070.91;5095530;28;20352;-61
2023/04/28 05:11:56;;;;;;;;;;;;;;;8.08;31.76;101070.53;5095921;28;19924;-61
2023/04/28 05:14:22;;;;;;;;;;;;;;;8.08;32.03;101075.06;5095488;28;19912;-61
2023/04/28 05:16:47;;;;;;;;;;;;;;;8.18;32.00;101080.25;5095757;28;19923;-59
2023/04/28 05:19:12;;;;;;;;;;;;;;;8.17;32.26;101076.72;5094220;28;20010;-59
2023/04/28 05:21:37;;;;;;;;;;;;;;;8.30;32.08;101079.81;5094346;28;19923;-61
2023/04/28 05:24:03;;;;;;;;;;;;;;;8.42;31.50;101074.16;5094017;28;19912;-60
2023/04/28 05:26:28;;;;;;;;;;;;;;;8.44;32.11;101077.50;5094330;28;20467;-59
2023/04/28 05:28:53;;;;;;;;;;;;;;;8.45;31.73;101079.16;5094614;28;19916;-61
2023/04/28 05:31:19;;;;;;;;;;;;;;;8.48;31.02;101074.31;5094263;28;20331;-59
2023/04/28 05:33:44;;;;;;;;;;;;;;;8.50;31.38;101071.50;5094375;28;19938;-60
2023/04/28 05:36:10;;;;;;;;;;;;;;;8.50;30.93;101075.00;5095031;28;20204;-62
2023/04/28 05:38:36;;;;;;;;;;;;;;;8.58;31.51;101073.34;5094762;28;19916;-62
2023/04/28 05:41:01;;;;;;;;;;;;;;;8.64;31.60;101073.53;5095436;28;19912;-60
2023/04/28 05:43:27;;;;;;;;;;;;;;;8.68;31.19;101076.72;5094660;28;20020;-61
2023/04/28 05:45:52;;;;;;;;;;;;;;;8.78;31.43;101072.00;5094761;28;19919;-60
2023/04/28 05:48:18;;;;;;;;;;;;;;;8.81;31.13;101078.91;5094712;28;19923;-60
2023/04/28 05:50:43;;;;;;;;;;;;;;;8.93;31.31;101079.38;5095271;28;20370;-60
2023/04/28 05:53:08;;;;;;;;;;;;;;;9.04;31.43;101085.25;5098481;28;19931;-61
2023/04/28 05:55:35;;;;;;;;;;;;;;;9.03;31.60;101080.91;5098569;28;19947;-62
2023/04/28 05:58:00;;;;;;;;;;;;;;;9.05;32.20;101086.09;5098619;28;19916;-61
2023/04/28 06:00:26;;;;;;;;;;;;;;;9.19;30.97;101077.34;5097114;28;19924;-61
2023/04/28 06:02:51;;;;;;;;;;;;;;;9.28;30.77;101078.19;5098728;28;19957;-61
2023/04/28 06:05:16;;;;;;;;;;;;;;;9.37;31.17;101076.34;5097313;28;20348;-61
2023/04/28 06:07:42;;;;;;;;;;;;;;;9.43;30.47;101068.44;5080223;28;19912;-59
2023/04/28 06:10:08;;;;;;;;;;;;;;;9.46;31.02;101078.81;5098385;28;19923;-60
2023/04/28 06:12:33;;;;;;;;;;;;;;;9.56;30.76;101078.63;5097728;28;20361;-60
2023/04/28 06:14:58;;;;;;;;;;;;;;;9.55;30.64;101079.66;5099709;28;19912;-61
2023/04/28 06:17:23;;;;;;;;;;;;;;;9.65;30.21;101076.75;5098467;28;19916;-60
2023/04/28 06:19:52;;;;;;;;;;;;;;;9.75;30.35;101073.88;5098975;28;19916;-60
2023/04/28 06:22:17;;;;;;;;;;;;;;;9.84;30.20;101073.69;5099442;28;19975;-60
2023/04/28 06:24:43;;;;;;;;;;;;;;;9.87;30.15;101075.19;5097132;28;19997;-58
2023/04/28 06:27:08;;;;;;;;;;;;;;;9.94;30.20;101075.34;5097466;28;19961;-58
2023/04/28 06:29:34;;;;;;;;;;;;;;;9.98;30.04;101076.66;5097785;28;19912;-59
2023/04/28 06:31:59;;;;;;;;;;;;;;;10.02;30.83;101078.78;5096184;28;19922;-60
2023/04/28 06:34:29;;;;;;;;;;;;;;;10.15;30.44;101078.22;5097991;28;19916;-60
2023/04/28 06:36:55;;;;;;;;;;;;;;;10.19;30.05;101076.88;5097236;28;19916;-58
2023/04/28 06:39:21;;;;;;;;;;;;;;;10.22;29.92;101073.84;5098402;28;19924;-58
2023/04/28 06:41:46;;;;;;;;;;;;;;;10.35;30.32;101078.66;5098105;28;20323;-59
2023/04/28 06:44:12;;;;;;;;;;;;;;;10.28;29.34;101070.44;5097453;28;19992;-60
2023/04/28 06:46:37;;;;;;;;;;;;;;;10.41;29.75;101074.44;5097901;28;19912;-59
2023/04/28 06:49:03;;;;;;;;;;;;;;;10.47;31.10;101079.09;5097940;28;19926;-59
2023/04/28 06:51:29;;;;;;;;;;;;;;;10.51;30.59;101069.69;5097582;28;19916;-59
2023/04/28 06:53:54;;;;;;;;;;;;;;;10.53;30.69;101078.38;5096489;28;20411;-60
2023/04/28 06:56:20;;;;;;;;;;;;;;;10.43;30.69;101091.19;5098072;28;19912;-59
2023/04/28 06:58:45;;;;;;;;;;;;;;;10.43;31.93;101086.66;5079701;28;19920;-64
2023/04/28 07:01:10;;;;;;;;;;;;;;;10.50;30.65;101086.78;5097263;28;19942;-63
2023/04/28 07:03:36;;;;;;;;;;;;;;;10.42;30.30;101087.69;5097781;28;19964;-64
2023/04/28 07:06:02;;;;;;;;;;;;;;;10.25;30.28;101086.91;5097682;28;19912;-64
2023/04/28 07:08:29;;;;;;;;;;;;;;;10.26;30.46;101085.88;5097700;28;19912;-64
2023/04/28 07:10:55;;;;;;;;;;;;;;;10.48;30.94;101088.81;5097171;28;20437;-65
2023/04/28 07:13:20;;;;;;;;;;;;;;;10.56;30.33;101083.38;5097007;28;19994;-63
2023/04/28 07:15:46;;;;;;;;;;;;;;;10.60;30.38;101094.59;5096823;28;19912;-63
2023/04/28 07:18:11;;;;;;;;;;;;;;;10.45;30.21;101097.22;5097282;28;20242;-64
2023/04/28 07:20:36;;;;;;;;;;;;;;;10.56;30.45;101080.69;5095399;28;19912;-62
2023/04/28 07:23:02;;;;;;;;;;;;;;;10.50;30.74;101081.41;5095463;28;19912;-62
2023/04/28 07:25:27;;;;;;;;;;;;;;;10.60;31.34;101091.94;5095373;28;19912;-63
2023/04/28 07:27:53;;;;;;;;;;;;;;;10.64;30.73;101085.19;5094197;28;20322;-64
2023/04/28 07:30:18;;;;;;;;;;;;;;;10.71;30.69;101093.38;5095803;28;19924;-63
2023/04/28 07:32:43;;;;;;;;;;;;;;;10.60;30.76;101090.06;5095617;28;19912;-64
2023/04/28 07:35:09;;;;;;;;;;;;;;;10.79;30.85;101086.09;5096411;28;19912;-64
2023/04/28 07:37:35;;;;;;;;;;;;;;;10.82;31.59;101080.34;5095334;28;19999;-63
2023/04/28 07:40:00;;;;;;;;;;;;;;;10.89;30.20;101077.78;5094900;28;19960;-64
2023/04/28 07:42:26;;;;;;;;;;;;;;;10.85;30.08;101077.31;5094723;28;19916;-64
2023/04/28 07:44:51;;;;;;;;;;;;;;;11.01;30.13;101076.34;5096453;28;19922;-64
2023/04/28 07:47:16;;;;;;;;;;;;;;;10.99;29.91;101075.66;5096435;28;19916;-64
2023/04/28 07:49:42;;;;;;;;;;;;;;;11.07;30.65;101073.91;5096434;28;19918;-63
2023/04/28 07:52:08;;;;;;;;;;;;;;;11.07;29.12;101071.22;5096749;28;19962;-63
2023/04/28 07:54:33;;;;;;;;;;;;;;;11.15;30.00;101060.44;5095634;28;19920;-65
2023/04/28 07:56:59;;;;;;;;;;;;;;;11.23;29.79;101065.72;5096819;28;19965;-65
2023/04/28 07:59:25;;;;;;;;;;;;;;;11.26;28.87;101067.22;5097509;28;19931;-63
2023/04/28 08:01:50;;;;;;;;;;;;;;;11.34;29.20;101076.00;5096612;28;19923;-63
2023/04/28 08:04:15;;;;;;;;;;;;;;;11.52;28.88;101067.59;5096815;28;19912;-64
2023/04/28 08:06:41;;;;;;;;;;;;;;;11.60;28.83;101061.28;5097139;28;19912;-64
2023/04/28 08:09:06;;;;;;;;;;;;;;;11.55;27.29;101063.69;5097237;28;20321;-64
2023/04/28 08:11:32;;;;;;;;;;;;;;;11.72;27.48;101057.13;5097286;28;19919;-65
2023/04/28 08:14:01;;;;;;;;;;;;;;;11.76;27.46;101071.88;5095784;28;19927;-64
2023/04/28 08:16:26;;;;;;;;;;;;;;;11.76;26.84;101069.19;5095114;28;19958;-63
2023/04/28 08:18:51;;;;;;;;;;;;;;;11.97;26.51;101064.91;5095028;28;19940;-63
2023/04/28 08:21:17;;;;;;;;;;;;;;;11.98;26.61;101064.72;5098265;28;19916;-63
2023/04/28 08:23:43;;;;;;;;;;;;;;;12.29;26.68;101069.00;5096322;28;19961;-62
2023/04/28 08:26:09;;;;;;;;;;;;;;;12.43;26.08;101069.19;5095585;28;20006;-64
2023/04/28 08:28:34;;;;;;;;;;;;;;;12.48;26.82;101062.19;5095608;28;19962;-64
2023/04/28 08:31:00;;;;;;;;;;;;;;;12.49;26.43;101074.63;5095558;28;19919;-63
2023/04/28 08:33:25;;;;;;;;;;;;;;;12.65;25.38;101064.59;5095215;28;19919;-64
2023/04/28 08:35:50;;;;;;;;;;;;;;;12.73;25.76;101064.50;5095378;28;19912;-63
2023/04/28 08:38:17;;;;;;;;;;;;;;;12.82;25.52;101066.03;5095094;28;19938;-64
2023/04/28 08:40:42;;;;;;;;;;;;;;;12.95;25.48;101066.16;5095100;28;19912;-64
2023/04/28 08:43:09;;;;;;;;;;;;;;;13.15;25.00;101060.09;5094399;28;19923;-62
2023/04/28 08:45:44;;;;;;;;;;;;;;;13.09;25.13;101063.56;5094191;28;20628;-64
2023/04/28 08:48:19;;;;;;;;;;;;;;;13.07;25.38;101055.66;5094892;28;19912;-65
2023/04/28 08:50:52;;;;;;;;;;;;;;;13.15;25.63;101052.00;5093167;28;19916;-64
2023/04/28 08:53:22;;;;;;;;;;;;;;;13.15;24.87;101057.41;5095381;28;20563;-64
2023/04/28 08:55:49;;;;;;;;;;;;;;;13.34;25.49;101054.03;5094737;28;19912;-63
2023/04/28 08:58:14;;;;;;;;;;;;;;;13.34;24.90;101050.50;5094326;28;19916;-64
2023/04/28 09:00:39;;;;;;;;;;;;;;;13.48;25.26;101054.97;5095151;28;20375;-64
2023/04/28 09:03:05;;;;;;;;;;;;;;;13.57;24.89;101052.91;5095028;28;20370;-63
2023/04/28 09:05:30;;;;;;;;;;;;;;;13.70;24.79;101055.69;5095724;28;19935;-64
2023/04/28 09:07:56;;;;;;;;;;;;;;;13.83;25.37;101046.00;5096324;28;19972;-64
2023/04/28 09:10:22;;;;;;;;;;;;;;;13.87;25.00;101047.25;5096525;28;20379;-63
2023/04/28 09:12:50;;;;;;;;;;;;;;;13.84;25.08;101039.56;5095899;28;19927;-63
2023/04/28 09:15:29;;;;;;;;;;;;;;;13.94;24.79;101042.72;5095026;28;19920;-63
2023/04/28 09:17:55;;;;;;;;;;;;;;;14.02;24.66;101039.84;5095916;28;20340;-63
2023/04/28 09:20:21;;;;;;;;;;;;;;;14.09;25.04;101039.84;5094832;28;19919;-64
2023/04/28 09:22:47;;;;;;;;;;;;;;;14.23;24.45;101048.84;5095214;28;19935;-64
2023/04/28 09:25:12;;;;;;;;;;;;;;;14.41;25.09;101040.16;5096550;28;20381;-64
2023/04/28 09:27:37;;;;;;;;;;;;;;;14.49;24.97;101038.09;5098982;28;19916;-63
2023/04/28 09:30:03;;;;;;;;;;;;;;;14.33;23.92;101033.06;5099632;28;19916;-63
2023/04/28 09:32:29;;;;;;;;;;;;;;;14.62;24.16;101031.91;5099135;28;19912;-62
2023/04/28 09:34:55;;;;;;;;;;;;;;;14.66;23.95;101030.44;5098934;28;20034;-64
2023/04/28 09:37:22;;;;;;;;;;;;;;;14.89;23.98;101030.06;5099003;28;19912;-64
2023/04/28 09:39:51;;;;;;;;;;;;;;;15.03;23.32;101024.63;5099294;28;19951;-64
2023/04/28 09:42:36;;;;;;;;;;;;;;;15.01;23.12;101024.84;5099027;28;19952;-64
2023/04/28 09:45:02;;;;;;;;;;;;;;;15.15;23.14;101020.22;5099873;28;19973;-64
2023/04/28 09:47:28;;;;;;;;;;;;;;;15.48;23.32;101022.88;5100264;28;19955;-64
2023/04/28 09:49:58;;;;;;;;;;;;;;;15.55;22.93;101012.03;5098328;28;20350;-64
2023/04/28 09:52:24;;;;;;;;;;;;;;;15.72;22.87;101014.28;5097305;28;19916;-63
2023/04/28 09:54:50;;;;;;;;;;;;;;;15.59;21.83;101017.88;5099360;28;19938;-64
2023/04/28 09:57:17;;;;;;;;;;;;;;;15.70;22.96;101011.78;5098765;28;20002;-64
2023/04/28 09:59:45;;;;;;;;;;;;;;;15.73;22.11;101005.09;5099027;28;19934;-64
2023/04/28 10:02:12;;;;;;;;;;;;;;;16.08;21.65;101013.72;5098737;28;19922;-64
2023/04/28 10:04:38;;;;;;;;;;;;;;;16.38;21.86;101008.56;5098250;28;19912;-63
2023/04/28 10:07:03;;;;;;;;;;;;;;;16.63;21.72;101005.03;5099524;28;19926;-64
2023/04/28 10:09:30;;;;;;;;;;;;;;;16.74;21.50;100996.16;5098547;28;19970;-65
2023/04/28 10:11:56;;;;;;;;;;;;;;;17.07;21.57;100999.66;5097258;28;19924;-65
2023/04/28 10:14:22;;;;;;;;;;;;;;;17.18;22.40;101004.38;5098517;28;19931;-65
2023/04/28 10:16:50;;;;;;;;;;;;;;;17.17;24.11;101002.72;5098430;28;19916;-64
2023/04/28 10:19:16;;;;;;;;;;;;;;;17.20;21.58;100996.84;5097772;28;19943;-64
2023/04/28 10:21:46;;;;;;;;;;;;;;;16.93;21.98;100997.06;5096195;28;20356;-64
2023/04/28 10:24:17;;;;;;;;;;;;;;;16.99;21.67;101000.78;5098101;28;19912;-65
2023/04/28 10:27:00;;;;;;;;;;;;;;;17.01;22.53;100998.66;5097444;28;19912;-64
2023/04/28 10:29:25;;;;;;;;;;;;;;;16.78;21.76;101002.81;5097254;28;19940;-64
2023/04/28 10:32:10;;;;;;;;;;;;;;;17.00;22.14;100995.13;5098253;28;19919;-65
2023/04/28 10:34:36;;;;;;;;;;;;;;;17.30;21.34;100986.28;5098677;28;19922;-64
2023/04/28 10:37:01;;;;;;;;;;;;;;;17.14;20.48;100990.44;5097574;28;20268;-64
2023/04/28 10:39:27;;;;;;;;;;;;;;;17.26;21.03;100973.41;5098816;28;19917;-64
2023/04/28 10:41:52;;;;;;;;;;;;;;;17.49;21.00;100976.25;5097814;28;19912;-64
2023/04/28 10:44:29;;;;;;;;;;;;;;;17.70;20.58;100971.38;5098743;28;19927;-63
2023/04/28 10:47:02;;;;;;;;;;;;;;;17.83;20.90;100971.25;5096109;28;20052;-65
2023/04/28 10:49:46;;;;;;;;;;;;;;;18.33;21.73;100973.69;5097966;28;19959;-63
2023/04/28 10:52:30;;;;;;;;;;;;;;;18.30;19.78;100979.59;5097371;28;19969;-65
2023/04/28 10:55:14;;;;;;;;;;;;;;;18.38;20.03;100975.69;5095975;28;20003;-64
2023/04/28 10:57:40;;;;;;;;;;;;;;;18.49;18.93;100963.19;5097473;28;20369;-64
2023/04/28 11:00:26;;;;;;;;;;;;;;;18.57;18.67;100974.56;5097652;28;19962;-64
2023/04/28 11:02:53;;;;;;;;;;;;;;;18.82;18.64;100962.66;5096622;28;20262;-63
2023/04/28 11:05:18;;;;;;;;;;;;;;;19.21;19.37;100970.34;5097290;28;19923;-64
2023/04/28 11:08:03;;;;;;;;;;;;;;;19.50;20.02;100963.91;5097155;28;19912;-64
2023/04/28 11:10:48;;;;;;;;;;;;;;;19.66;18.25;100967.75;5095333;28;20356;-64
2023/04/28 11:13:26;;;;;;;;;;;;;;;19.90;17.79;100965.78;5095323;28;19996;-65
2023/04/28 11:16:01;;;;;;;;;;;;;;;20.19;18.08;100968.53;5096392;28;20579;-65
2023/04/28 11:18:28;;;;;;;;;;;;;;;20.31;18.80;100963.00;5096484;28;20016;-65
2023/04/28 11:20:56;;;;;;;;;;;;;;;20.47;20.88;100959.44;5095105;28;20332;-65
2023/04/28 11:23:22;;;;;;;;;;;;;;;20.62;17.35;100972.53;5095832;28;19947;-64
2023/04/28 11:25:54;;;;;;;;;;;;;;;20.61;18.03;100968.16;5095376;28;19912;-65
2023/04/28 11:28:20;;;;;;;;;;;;;;;21.30;18.50;100969.72;5092111;28;20008;-64
2023/04/28 11:30:45;;;;;;;;;;;;;;;21.69;18.13;100966.94;5095837;28;20047;-65
2023/04/28 11:33:11;;;;;;;;;;;;;;;21.91;16.95;100955.97;5095536;28;20003;-65
2023/04/28 11:35:42;;;;;;;;;;;;;;;22.12;16.75;100954.28;5095274;28;19939;-65
2023/04/28 11:38:07;;;;;;;;;;;;;;;22.41;17.16;100954.03;5095849;28;19927;-65
2023/04/28 11:40:33;;;;;;;;;;;;;;;22.50;16.25;100952.47;5095672;28;19999;-65
2023/04/28 11:42:58;;;;;;;;;;;;;;;22.59;16.01;100958.28;5095628;28;20412;-65
2023/04/28 11:45:24;;;;;;;;;;;;;;;22.76;15.48;100950.72;5093714;28;19912;-65
2023/04/28 11:47:49;;;;;;;;;;;;;;;22.93;18.13;100944.28;5095037;28;19912;-64
2023/04/28 11:50:14;;;;;;;;;;;;;;;22.51;15.57;100951.38;5094952;28;19939;-64
2023/04/28 11:52:49;;;;;;;;;;;;;;;22.66;15.09;100952.56;5095230;28;19919;-65
2023/04/28 11:55:18;;;;;;;;;;;;;;;22.70;15.61;100953.72;5095340;28;19912;-65
2023/04/28 11:57:43;;;;;;;;;;;;;;;22.75;16.42;100951.00;5095312;28;19923;-65
2023/04/28 12:00:20;;;;;;;;;;;;;;;23.05;17.19;100950.41;5094492;28;19912;-65
2023/04/28 12:02:46;;;;;;;;;;;;;;;23.13;15.70;100940.84;5094230;28;19987;-65
2023/04/28 12:05:11;;;;;;;;;;;;;;;23.32;15.72;100944.78;5095501;28;19993;-65
2023/04/28 12:07:41;;;;;;;;;;;;;;;23.25;14.67;100940.63;5095664;28;19923;-66
2023/04/28 12:10:11;;;;;;;;;;;;;;;23.55;16.03;100945.41;5094888;28;20264;-65
2023/04/28 12:12:36;;;;;;;;;;;;;;;24.10;15.49;100945.84;5093691;28;20013;-65
2023/04/28 12:15:01;;;;;;;;;;;;;;;24.45;17.47;100938.75;5095082;28;20410;-65
2023/04/28 12:17:31;;;;;;;;;;;;;;;24.23;14.33;100926.09;5094037;28;19920;-65
2023/04/28 12:19:57;;;;;;;;;;;;;;;24.06;14.16;100931.84;5093379;28;19916;-65
2023/04/28 12:22:23;;;;;;;;;;;;;;;24.57;17.60;100942.03;5094298;28;19966;-65
2023/04/28 12:25:07;;;;;;;;;;;;;;;25.01;15.71;100935.13;5094260;28;20014;-64
2023/04/28 12:27:33;;;;;;;;;;;;;;;25.44;15.59;100939.09;5092846;28;19912;-64
2023/04/28 12:29:58;;;;;;;;;;;;;;;25.93;13.48;100932.00;5092887;28;19916;-66
2023/04/28 12:32:40;;;;;;;;;;;;;;;26.50;12.83;100929.63;5093044;28;20307;-64
2023/04/28 12:35:06;;;;;;;;;;;;;;;26.85;13.03;100930.41;5093906;28;20295;-66
2023/04/28 12:37:32;;;;;;;;;;;;;;;27.14;13.39;100922.09;5093047;28;19920;-65
2023/04/28 12:39:57;;;;;;;;;;;;;;;27.05;11.82;100926.63;5093621;28;20307;-65